WEATHER DATA

YESTERDAY
Time Temp. Dewp. Hum. Wind dir Wind speed Wind gust Bar. 1h Prec. 24h Prec.
00:01 -1.4 -1.5 99 6 0.3 1.7 1028.3 0.0000 0.0000
00:21 -1.4 -1.6 98 218 0.3 1.1 1028.3 0.0000 0.0000
00:32 -1.5 -1.7 98 270 0.3 0.8 1028.3 0.0000 0.0000
00:41 -1.5 -1.7 98 315 0.3 1.4 1028.4 0.0000 0.0000
00:51 -1.5 -1.7 98 270 0.3 1.4 1028.2 0.0000 0.0000
01:02 -1.5 -1.7 98 2 0.6 1.9 1028.2 0.0000 0.0000
01:12 -1.5 -1.9 97 56 0.3 0.6 1028.2 0.0000 0.0000
01:22 -1.5 -1.9 97 12 0.3 0.8 1028.2 0.0000 0.0000
01:32 -1.6 -2 97 2 0.6 1.4 1028.3 0.0000 0.0000
01:42 -1.7 -2.2 96 3 0.6 1.9 1028.3 0.0000 0.0000
01:52 -1.8 -2.3 96 11 0.3 0.8 1028.3 0.0000 0.0000
02:02 -1.8 -2.2 97 356 0.3 1.1 1028.4 0.0000 0.0000
02:13 -1.9 -2.3 97 0.3 1.1 1028.3 0.0000 0.0000
02:22 -1.9 -2.3 97 344 0.3 0.8 1028.3 0.0000 0.0000
02:32 -2 -2.4 97 303 0.3 0.6 1028.3 0.0000 0.0000
02:42 -2 -2.4 97 212 0.3 1.1 1028.2 0.0000 0.0000
02:53 -2 -2.4 97 0 0.6 1028.1 0.0000 0.0000
03:03 -2 -2.2 98 23 0.3 0.8 1028.2 0.0000 0.0000
03:12 -1.9 -2.1 98 0 0.6 1.1 1028.3 0.0000 0.0000
03:23 -1.9 -2.1 98 270 0.3 0.6 1028 0.0000 0.0000
03:33 -1.9 -2.1 98 236 0.3 0.8 1027.9 0.0000 0.0000
03:43 -1.9 -2.1 98 215 0.6 1.4 1027.9 0.0000 0.0000
03:53 -1.9 -2.3 97 209 0.3 1.4 1027.8 0.0000 0.0000
04:03 -2 -2.4 97 231 0.3 1.1 1027.7 0.0000 0.0000
04:13 -2.1 -2.6 96 249 0.6 1.4 1027.6 0.0000 0.0000
04:23 -2.1 -2.6 96 231 0.6 1.7 1027.4 0.0000 0.0000
04:34 -2.2 -2.7 96 225 0.3 1.1 1027.3 0.0000 0.0000
04:44 -2.4 -2.9 96 9 0.3 1.7 1027.4 0.0000 0.0000
04:53 -2.5 -3 96 270 0.3 1.7 1027.3 0.0000 0.0000
05:03 -2.4 -2.8 97 244 0.6 1.7 1027.3 0.0000 0.0000
05:14 -2.4 -2.8 97 227 0.6 2.5 1027.1 0.0000 0.0000
05:24 -2.4 -2.8 97 225 0.6 1.9 1027 0.0000 0.0000
05:34 -2.3 -2.7 97 232 0.6 1.9 1027 0.0000 0.0000
05:44 -2.3 -2.7 97 229 0.6 1.1 1026.9 0.0000 0.0000
05:54 -2.3 -2.7 97 217 0.3 1.1 1026.7 0.0000 0.0000
06:04 -2.3 -2.7 97 270 0.6 1.7 1026.8 0.0000 0.0000
06:14 -2.2 -2.4 98 26 0.6 1.7 1026.9 0.0000 0.0000
06:25 -2.2 -2.4 98 353 0.3 1.1 1027.1 0.0000 0.0000
06:34 -2.1 -2.3 98 10 0.8 2.5 1027.5 0.0000 0.0000
06:44 -2.1 -2.5 97 309 0.6 1.7 1027.5 0.0000 0.0000
06:55 -2.1 -2.5 97 233 0.3 1.4 1027.6 0.0000 0.0000
07:05 -2.2 -2.6 97 228 0.6 2.5 1027.2 0.0000 0.0000
07:15 -2.2 -2.6 97 250 0.8 4.4 1027.2 0.0000 0.0000
07:24 -2.2 -2.4 98 348 0.3 1.1 1027.4 0.0000 0.0000
07:35 -2.2 -2.4 98 225 0.3 1.7 1027.3 0.0000 0.0000
07:45 -2.2 -2.4 98 5 0.6 1.9 1027.2 0.0000 0.0000
07:55 -2.2 -2.4 98 270 0.3 1.4 1027.2 0.0000 0.0000
08:05 -2.1 -2.3 98 270 0.3 1.4 1027 0.0000 0.0000
08:15 -2.1 -2.3 98 216 0.8 2.5 1026.9 0.0000 0.0000
08:25 -2 -2.2 98 270 0.6 2.5 1026.9 0.0000 0.0000
08:35 -2 -2.2 98 255 0.6 4.2 1027 0.0000 0.0000
08:46 -2 -2.2 98 291 0.6 1.7 1027.2 0.0000 0.0000
08:56 -1.9 -2.1 98 229 0.6 1.7 1026.9 0.0000 0.0000
09:05 -1.8 -2 98 251 0.6 1.4 1027 0.0000 0.0000
09:16 -1.8 -2 98 235 0.6 2.2 1027.1 0.0000 0.0000
09:26 -1.7 -2.1 97 239 0.3 1.4 1027.1 0.0000 0.0000
09:36 -1.6 -2 97 270 0.6 1.7 1027 0.0000 0.0000
09:46 -1.4 -1.8 97 243 0.6 3.1 1027.1 0.0000 0.0000
09:56 -1.4 -1.8 97 315 0.6 1.9 1027.2 0.0000 0.0000
10:06 -1.2 -1.6 97 353 0.3 1.9 1027.3 0.0000 0.0000
10:16 -1.1 -1.5 97 8 0.6 1.7 1027.4 0.0000 0.0000
10:26 -1 -1.4 97 336 0.3 1.7 1027.4 0.0000 0.0000
10:37 -0.9 -1.4 96 230 0.6 1.9 1027.3 0.0000 0.0000
10:46 -0.8 -1.3 96 315 0.3 1.7 1027.4 0.0000 0.0000
10:56 -0.7 -1.2 96 315 0.6 1.7 1027.4 0.0000 0.0000
11:07 -0.7 -1.2 96 348 0.6 3.1 1027.4 0.0000 0.0000
11:17 -0.7 -1.3 95 341 1.1 4.2 1027.4 0.0000 0.0000
11:27 -0.7 -1.3 95 325 0.8 2.8 1027.5 0.0000 0.0000
11:37 -0.7 -1.3 95 270 1.1 3.1 1027.5 0.0000 0.0000
11:47 -0.8 -1.4 95 255 0.6 1.4 1027.4 0.0000 0.0000
11:57 -0.7 -1.3 95 270 0.3 1.4 1027.4 0.0000 0.0000
12:07 -0.7 -1.3 95 343 0.8 2.5 1027.5 0.0000 0.0000
12:18 -0.7 -1.3 95 315 0.6 1.9 1027.3 0.0000 0.0000
12:27 -0.6 -1.1 96 296 0.6 2.5 1027.4 0.0000 0.0000
12:37 -0.3 -0.8 96 0 0.3 1.4 1027.4 0.0000 0.0000
12:47 -0.1 -0.6 96 180 0.3 1.1 1027.4 0.0000 0.0000
12:58 0 -0.6 95 135 0.3 0.8 1027.3 0.0000 0.0000
13:08 0 -0.6 95 90 0.3 0.8 1027.3 0.0000 0.0000
13:17 -0.1 -0.7 95 165 0.6 1.7 1027.3 0.0000 0.0000
13:28 -0.1 -0.6 96 164 0.3 1.4 1027.1 0.0000 0.0000
13:38 -0.2 -0.7 96 203 0.6 1.7 1027.2 0.0000 0.0000
13:48 -0.1 -0.5 97 161 0.3 1.1 1027.1 0.0000 0.0000
13:58 0 -0.4 97 26 0.3 2.2 1027 0.0000 0.0000
14:08 0.1 -0.3 97 225 0.6 1.9 1026.7 0.0000 0.0000
14:18 0.3 -0.1 97 247 0.8 2.5 1026.4 0.0000 0.0000
14:28 0.4 -0.1 96 194 0.3 1.7 1026.4 0.0000 0.0000
14:39 0.5 -0.1 96 228 0.8 2.2 1026.2 0.0000 0.0000
14:49 0.5 -0.2 95 249 0.6 2.2 1026.1 0.0000 0.0000
14:58 0.6 -0.1 95 234 0.8 4.2 1025.9 0.0000 0.0000
15:08 0.7 -0.1 94 231 0.8 3.6 1026.1 0.0000 0.0000
15:19 0.7 -0.1 94 219 0.6 3.1 1026.2 0.0000 0.0000
15:29 0.7 -0.3 93 239 0.8 2.2 1026.1 0.0000 0.0000
15:39 0.6 -0.4 93 236 0.8 3.9 1026 0.0000 0.0000
15:49 0.6 -0.4 93 258 0.8 3.1 1026.2 0.0000 0.0000
15:59 0.5 -0.4 93 230 0.8 2.8 1026.2 0.0000 0.0000
16:09 0.4 -0.4 94 235 0.6 2.5 1026.2 0.0000 0.0000
16:19 0.4 -0.4 94 237 1.1 2.5 1026.3 0.0000 0.0000
16:30 0.3 -0.5 94 270 0.6 1.9 1026.4 0.0000 0.0000
16:39 0.3 -0.5 94 236 0.6 1.9 1026.4 0.0000 0.0000
16:49 0.2 -0.6 94 239 0.8 2.8 1026.3 0.0000 0.0000
17:00 0.1 -0.5 95 237 0.6 2.2 1026.5 0.0000 0.0000
17:10 0.1 -0.5 95 11 0.6 1.7 1026.9 0.0000 0.0000
17:20 0.1 -0.5 95 280 0.8 2.2 1026.7 0.0000 0.0000
17:29 0.1 -0.5 95 225 0.3 1.1 1026.8 0.0000 0.0000
17:40 0.1 -0.5 95 237 0.6 1.9 1026.7 0.0000 0.0000
17:50 0.1 -0.5 95 251 0.8 2.5 1026.7 0.0000 0.0000
18:00 0 -0.6 95 243 0.8 2.2 1026.8 0.0000 0.0000
18:10 0 -0.6 95 303 0.6 1.9 1026.7 0.0000 0.0000
18:20 0 -0.5 96 247 0.6 3.1 1026.5 0.0000 0.0000
18:30 0 -0.5 96 228 0.6 2.2 1026.7 0.0000 0.0000
18:40 -0.1 -0.6 96 233 1.4 4.2 1026.7 0.0000 0.0000
18:51 -0.1 -0.6 96 229 1.1 3.6 1026.8 0.0000 0.0000
19:01 -0.1 -0.6 96 241 0.8 2.5 1026.8 0.0000 0.0000
19:10 -0.1 -0.6 96 242 1.1 2.8 1026.8 0.0000 0.0000
19:20 -0.1 -0.6 96 210 1.4 3.1 1026.4 0.0000 0.0000
19:31 -0.1 -0.6 96 215 1.1 2.5 1026.3 0.0000 0.0000
19:41 -0.1 -0.6 96 225 0.8 2.5 1025.9 0.0000 0.0000
19:51 -0.1 -0.5 97 231 0.8 2.8 1026 0.0000 0.0000
20:01 0 -0.4 97 227 1.1 4.2 1026.1 0.0000 0.0000
20:11 0.1 -0.3 97 233 1.1 4.2 1026 0.0000 0.0000
20:21 0.1 -0.3 97 229 0.8 3.1 1025.9 0.0000 0.0000
20:31 0.1 -0.3 97 218 0.8 2.8 1026.1 0.0000 0.0000
20:42 0.2 -0.2 97 221 1.1 4.4 1026.1 0.0000 0.0000
20:51 0.2 -0.2 97 223 1.4 3.9 1025.9 0.0000 0.0000
21:01 0.2 -0.2 97 238 1.1 3.6 1026 0.0000 0.0000
21:12 0.3 -0.2 96 232 1.4 3.9 1025.9 0.0000 0.0000
21:22 0.3 -0.2 96 228 1.1 3.6 1025.7 0.0000 0.0000
21:32 0.3 -0.2 96 209 1.4 5.8 1025.7 0.0000 0.0000
21:41 0.3 -0.2 96 248 1.4 2.8 1025.6 0.0000 0.0000
21:52 0.3 -0.2 96 244 1.1 4.4 1025.5 0.0000 0.0000
22:02 0.2 -0.3 96 243 0.8 3.9 1025.7 0.0000 0.0000
22:12 0.2 -0.3 96 251 1.4 5.3 1025.4 0.0000 0.0000
22:23 0.2 -0.3 96 239 1.1 4.4 1025.4 0.0000 0.0000
22:32 0.2 -0.3 96 242 1.1 3.9 1025.4 0.0000 0.0000
22:42 0.2 -0.3 96 251 1.4 4.2 1025.2 0.0000 0.0000
22:52 0.2 -0.3 96 228 0.8 2.8 1025.2 0.0000 0.0000
23:03 0.2 -0.3 96 270 0.8 2.5 1025.2 0.0000 0.0000
23:13 0.1 -0.4 96 255 1.1 4.4 1025.3 0.0000 0.0000
23:22 0.1 -0.4 96 248 1.1 4.4 1025.2 0.0000 0.0000
23:33 0.1 -0.4 96 270 1.1 4.7 1025 0.0000 0.0000
23:43 0.1 -0.4 96 270 1.1 3.6 1025 0.0000 0.0000
23:53 0.1 -0.3 97 284 1.4 4.7 1024.9 0.0000

DAY STATISTIC

2022-01-26
TEMPERATURE
AVERAGE
-0.8
HIGH
0.7
15:08
LOW
-2.5
04:53
PRESSURE
AVERAGE
1026.9
HIGH
1028.4
00:41
LOW
1024.9
23:53
DEWPOINT
AVERAGE
-1.3
HIGH
-0.1
14:18
LOW
-3.0
04:53
HUMIDITY
AVERAGE
96
HIGH
99
00:01
LOW
93
15:29
WIND SPEED
AVERAGE
0.7
HIGH
1.4
18:40
WIND GUST
AVERAGE
2.3
HIGH
5.8
21:32
WIND DIRECTION
PREVAILING
SW
45.8%
N
14.8
NE
2.8
E
0.7
SE
0.7
S
4.2
SW
45.8
W
21.8
NW
7.7
PRECIPITATION
RAIN HOUR
0.0
RAIN DAY
0.0
TEMPERATURE (°C)
LOW
-2.5
HIGH
0.7
AVERAGE
-0.8
PRESSURE (hpa)
LOW
1024.9
HIGH
1028.4
AVERAGE
1026.9
DEVICE